sensor_id;sensor_type;location;lat;lon;timestamp;temperature;humidity
11656;DHT22;5884;43.618;1.438;2024-01-10T05:45:55;0.70;99.90
11656;DHT22;5884;43.618;1.438;2024-01-10T05:48:23;0.70;99.90
11656;DHT22;5884;43.618;1.438;2024-01-10T05:50:50;0.70;99.90
11656;DHT22;5884;43.618;1.438;2024-01-10T05:53:17;0.70;99.90
11656;DHT22;5884;43.618;1.438;2024-01-10T05:55:44;0.80;99.90
11656;DHT22;5884;43.618;1.438;2024-01-10T05:58:11;0.80;99.90
11656;DHT22;5884;43.618;1.438;2024-01-10T06:00:38;0.80;99.90
11656;DHT22;5884;43.618;1.438;2024-01-10T06:03:07;0.80;99.90
11656;DHT22;5884;43.618;1.438;2024-01-10T06:05:34;0.80;99.90
11656;DHT22;5884;43.618;1.438;2024-01-10T06:08:02;0.90;99.90
11656;DHT22;5884;43.618;1.438;2024-01-10T06:10:29;0.80;99.90
11656;DHT22;5884;43.618;1.438;2024-01-10T06:12:57;0.90;99.90
11656;DHT22;5884;43.618;1.438;2024-01-10T06:15:24;1.00;99.90
11656;DHT22;5884;43.618;1.438;2024-01-10T06:17:52;1.00;99.90
11656;DHT22;5884;43.618;1.438;2024-01-10T06:20:21;1.00;99.90
11656;DHT22;5884;43.618;1.438;2024-01-10T06:22:48;1.00;99.90
11656;DHT22;5884;43.618;1.438;2024-01-10T06:25:15;1.10;99.90
11656;DHT22;5884;43.618;1.438;2024-01-10T06:27:42;1.20;99.90
11656;DHT22;5884;43.618;1.438;2024-01-10T06:30:10;1.10;99.90
11656;DHT22;5884;43.618;1.438;2024-01-10T06:32:38;1.10;99.90
11656;DHT22;5884;43.618;1.438;2024-01-10T06:35:05;1.10;99.90
11656;DHT22;5884;43.618;1.438;2024-01-10T06:37:37;1.10;99.90
11656;DHT22;5884;43.618;1.438;2024-01-10T06:40:06;1.10;99.90
11656;DHT22;5884;43.618;1.438;2024-01-10T06:42:34;1.10;99.90
11656;DHT22;5884;43.618;1.438;2024-01-10T06:45:01;1.10;99.90
11656;DHT22;5884;43.618;1.438;2024-01-10T06:47:29;1.10;99.90
11656;DHT22;5884;43.618;1.438;2024-01-10T06:49:56;1.10;99.90
11656;DHT22;5884;43.618;1.438;2024-01-10T06:52:23;1.10;99.90
11656;DHT22;5884;43.618;1.438;2024-01-10T06:54:52;1.10;99.90
11656;DHT22;5884;43.618;1.438;2024-01-10T06:57:19;1.10;99.90
11656;DHT22;5884;43.618;1.438;2024-01-10T06:59:46;1.10;99.90
11656;DHT22;5884;43.618;1.438;2024-01-10T07:02:13;1.20;99.90
11656;DHT22;5884;43.618;1.438;2024-01-10T07:04:41;1.10;99.90
11656;DHT22;5884;43.618;1.438;2024-01-10T07:07:08;1.20;99.90
11656;DHT22;5884;43.618;1.438;2024-01-10T07:09:37;1.20;99.90
11656;DHT22;5884;43.618;1.438;2024-01-10T07:12:08;1.20;99.90
11656;DHT22;5884;43.618;1.438;2024-01-10T07:14:35;1.20;99.90
11656;DHT22;5884;43.618;1.438;2024-01-10T07:17:02;1.20;99.90
11656;DHT22;5884;43.618;1.438;2024-01-10T07:19:29;1.30;99.90
11656;DHT22;5884;43.618;1.438;2024-01-10T07:21:56;1.30;99.90
11656;DHT22;5884;43.618;1.438;2024-01-10T07:24:23;1.30;99.90
11656;DHT22;5884;43.618;1.438;2024-01-10T07:26:51;1.30;99.90
11656;DHT22;5884;43.618;1.438;2024-01-10T07:29:19;1.40;99.90
11656;DHT22;5884;43.618;1.438;2024-01-10T07:31:46;1.40;99.90
11656;DHT22;5884;43.618;1.438;2024-01-10T07:34:13;1.40;99.90
11656;DHT22;5884;43.618;1.438;2024-01-10T07:36:44;1.50;99.90
11656;DHT22;5884;43.618;1.438;2024-01-10T07:39:11;1.50;99.90
11656;DHT22;5884;43.618;1.438;2024-01-10T07:41:41;1.50;99.90
11656;DHT22;5884;43.618;1.438;2024-01-10T07:44:08;1.70;99.90
11656;DHT22;5884;43.618;1.438;2024-01-10T07:46:37;1.80;99.90
11656;DHT22;5884;43.618;1.438;2024-01-10T07:49:04;1.70;99.90
11656;DHT22;5884;43.618;1.438;2024-01-10T07:51:31;1.80;99.90
11656;DHT22;5884;43.618;1.438;2024-01-10T07:53:59;1.70;99.90
11656;DHT22;5884;43.618;1.438;2024-01-10T07:56:26;1.80;99.90
11656;DHT22;5884;43.618;1.438;2024-01-10T07:58:53;1.80;99.90
11656;DHT22;5884;43.618;1.438;2024-01-10T08:01:20;1.80;99.90
11656;DHT22;5884;43.618;1.438;2024-01-10T08:03:49;1.80;99.90
11656;DHT22;5884;43.618;1.438;2024-01-10T08:06:16;1.70;99.90
11656;DHT22;5884;43.618;1.438;2024-01-10T08:08:43;1.70;99.90
11656;DHT22;5884;43.618;1.438;2024-01-10T08:11:10;1.90;99.90
11656;DHT22;5884;43.618;1.438;2024-01-10T08:13:38;1.90;99.90
11656;DHT22;5884;43.618;1.438;2024-01-10T08:16:06;2.00;99.90
11656;DHT22;5884;43.618;1.438;2024-01-10T08:18:34;2.00;99.90
11656;DHT22;5884;43.618;1.438;2024-01-10T08:21:03;2.10;99.90
11656;DHT22;5884;43.618;1.438;2024-01-10T08:23:30;2.10;99.90
11656;DHT22;5884;43.618;1.438;2024-01-10T08:25:57;2.20;99.90
11656;DHT22;5884;43.618;1.438;2024-01-10T08:28:24;2.20;99.90
11656;DHT22;5884;43.618;1.438;2024-01-10T08:30:52;2.30;99.90
11656;DHT22;5884;43.618;1.438;2024-01-10T08:33:19;2.30;99.90
11656;DHT22;5884;43.618;1.438;2024-01-10T08:35:46;2.50;99.90
11656;DHT22;5884;43.618;1.438;2024-01-10T08:38:15;2.40;99.90
11656;DHT22;5884;43.618;1.438;2024-01-10T08:40:42;2.50;99.90
11656;DHT22;5884;43.618;1.438;2024-01-10T08:43:09;2.40;99.90
11656;DHT22;5884;43.618;1.438;2024-01-10T08:45:36;2.40;99.90
11656;DHT22;5884;43.618;1.438;2024-01-10T08:48:03;2.60;99.90
11656;DHT22;5884;43.618;1.438;2024-01-10T08:50:32;2.50;99.90
11656;DHT22;5884;43.618;1.438;2024-01-10T08:52:59;2.60;99.90
11656;DHT22;5884;43.618;1.438;2024-01-10T08:55:31;2.80;99.90
11656;DHT22;5884;43.618;1.438;2024-01-10T08:57:59;2.90;99.90
11656;DHT22;5884;43.618;1.438;2024-01-10T09:00:27;3.10;99.90
11656;DHT22;5884;43.618;1.438;2024-01-10T09:02:54;3.20;99.90
11656;DHT22;5884;43.618;1.438;2024-01-10T09:05:22;3.30;99.90
11656;DHT22;5884;43.618;1.438;2024-01-10T09:07:50;3.20;99.90
11656;DHT22;5884;43.618;1.438;2024-01-10T09:10:19;3.40;99.90
11656;DHT22;5884;43.618;1.438;2024-01-10T09:12:49;3.40;99.90
11656;DHT22;5884;43.618;1.438;2024-01-10T09:15:16;3.50;99.90
11656;DHT22;5884;43.618;1.438;2024-01-10T09:17:44;3.60;99.90
11656;DHT22;5884;43.618;1.438;2024-01-10T09:20:12;3.60;99.90
11656;DHT22;5884;43.618;1.438;2024-01-10T09:22:39;3.60;99.90
11656;DHT22;5884;43.618;1.438;2024-01-10T09:25:07;3.50;99.90
11656;DHT22;5884;43.618;1.438;2024-01-10T09:27:35;3.50;99.90
11656;DHT22;5884;43.618;1.438;2024-01-10T09:30:04;3.40;99.90
11656;DHT22;5884;43.618;1.438;2024-01-10T09:32:34;3.30;99.90
11656;DHT22;5884;43.618;1.438;2024-01-10T09:35:01;3.20;99.90
11656;DHT22;5884;43.618;1.438;2024-01-10T09:37:29;3.20;99.90
11656;DHT22;5884;43.618;1.438;2024-01-10T09:39:56;3.30;99.90
11656;DHT22;5884;43.618;1.438;2024-01-10T09:42:23;3.20;99.90
11656;DHT22;5884;43.618;1.438;2024-01-10T09:44:52;3.20;99.90
11656;DHT22;5884;43.618;1.438;2024-01-10T09:47:21;3.20;99.90
11656;DHT22;5884;43.618;1.438;2024-01-10T09:49:48;3.20;99.90
11656;DHT22;5884;43.618;1.438;2024-01-10T09:52:24;3.20;99.90
11656;DHT22;5884;43.618;1.438;2024-01-10T09:54:54;3.20;99.90
11656;DHT22;5884;43.618;1.438;2024-01-10T09:57:22;3.10;99.90
11656;DHT22;5884;43.618;1.438;2024-01-10T09:59:50;3.00;99.90
11656;DHT22;5884;43.618;1.438;2024-01-10T10:02:19;2.90;99.90
11656;DHT22;5884;43.618;1.438;2024-01-10T10:04:54;2.90;99.90
11656;DHT22;5884;43.618;1.438;2024-01-10T10:07:23;3.00;99.90
11656;DHT22;5884;43.618;1.438;2024-01-10T10:09:51;2.90;99.90
11656;DHT22;5884;43.618;1.438;2024-01-10T10:12:22;3.00;99.90
11656;DHT22;5884;43.618;1.438;2024-01-10T10:14:49;3.00;99.90
11656;DHT22;5884;43.618;1.438;2024-01-10T10:17:17;3.00;99.90
11656;DHT22;5884;43.618;1.438;2024-01-10T10:19:46;3.10;99.90
11656;DHT22;5884;43.618;1.438;2024-01-10T10:22:13;3.20;99.90
11656;DHT22;5884;43.618;1.438;2024-01-10T10:24:41;3.00;99.90
11656;DHT22;5884;43.618;1.438;2024-01-10T10:27:11;3.00;99.90
11656;DHT22;5884;43.618;1.438;2024-01-10T10:29:38;3.10;99.90
11656;DHT22;5884;43.618;1.438;2024-01-10T10:32:06;3.20;99.90
11656;DHT22;5884;43.618;1.438;2024-01-10T10:34:34;3.40;99.90
11656;DHT22;5884;43.618;1.438;2024-01-10T10:37:03;3.50;99.90
11656;DHT22;5884;43.618;1.438;2024-01-10T10:39:30;3.60;99.90
11656;DHT22;5884;43.618;1.438;2024-01-10T10:41:57;3.80;99.90
11656;DHT22;5884;43.618;1.438;2024-01-10T10:44:26;3.70;99.90
11656;DHT22;5884;43.618;1.438;2024-01-10T10:46:59;3.70;99.90
11656;DHT22;5884;43.618;1.438;2024-01-10T10:49:29;3.70;99.90
11656;DHT22;5884;43.618;1.438;2024-01-10T10:51:59;3.60;99.90
11656;DHT22;5884;43.618;1.438;2024-01-10T10:54:29;3.70;99.90
11656;DHT22;5884;43.618;1.438;2024-01-10T10:56:59;3.80;99.90
11656;DHT22;5884;43.618;1.438;2024-01-10T10:59:29;3.80;99.90
11656;DHT22;5884;43.618;1.438;2024-01-10T11:01:58;4.00;99.90
11656;DHT22;5884;43.618;1.438;2024-01-10T11:04:26;4.10;99.90
11656;DHT22;5884;43.618;1.438;2024-01-10T11:06:54;4.00;99.90
11656;DHT22;5884;43.618;1.438;2024-01-10T11:09:22;4.00;99.90
11656;DHT22;5884;43.618;1.438;2024-01-10T11:12:08;4.00;99.90
11656;DHT22;5884;43.618;1.438;2024-01-10T11:14:59;3.80;99.90
11656;DHT22;5884;43.618;1.438;2024-01-10T11:17:55;3.80;99.90
11656;DHT22;5884;43.618;1.438;2024-01-10T11:20:54;3.70;99.90
11656;DHT22;5884;43.618;1.438;2024-01-10T11:23:42;3.70;99.90
11656;DHT22;5884;43.618;1.438;2024-01-10T11:26:11;3.60;99.90
11656;DHT22;5884;43.618;1.438;2024-01-10T11:28:40;3.60;99.90
11656;DHT22;5884;43.618;1.438;2024-01-10T11:31:08;3.60;99.90
11656;DHT22;5884;43.618;1.438;2024-01-10T11:33:36;3.60;99.90
11656;DHT22;5884;43.618;1.438;2024-01-10T11:36:12;3.60;99.90
11656;DHT22;5884;43.618;1.438;2024-01-10T11:38:47;3.60;99.90
11656;DHT22;5884;43.618;1.438;2024-01-10T11:41:21;3.60;99.90
11656;DHT22;5884;43.618;1.438;2024-01-10T11:44:26;3.60;99.90
11656;DHT22;5884;43.618;1.438;2024-01-10T11:46:59;3.60;99.90
11656;DHT22;5884;43.618;1.438;2024-01-10T11:49:26;3.70;99.90
11656;DHT22;5884;43.618;1.438;2024-01-10T11:51:55;3.70;99.90
11656;DHT22;5884;43.618;1.438;2024-01-10T11:54:40;3.70;99.90
11656;DHT22;5884;43.618;1.438;2024-01-10T11:57:11;3.70;99.90
11656;DHT22;5884;43.618;1.438;2024-01-10T11:59:42;3.70;99.90
11656;DHT22;5884;43.618;1.438;2024-01-10T12:02:10;3.80;99.90
11656;DHT22;5884;43.618;1.438;2024-01-10T12:04:39;3.90;99.90
11656;DHT22;5884;43.618;1.438;2024-01-10T12:07:07;3.80;99.90
11656;DHT22;5884;43.618;1.438;2024-01-10T12:09:34;3.80;99.90
11656;DHT22;5884;43.618;1.438;2024-01-10T12:12:02;4.00;99.90
11656;DHT22;5884;43.618;1.438;2024-01-10T12:14:30;4.00;99.90
11656;DHT22;5884;43.618;1.438;2024-01-10T12:16:59;3.90;99.90
11656;DHT22;5884;43.618;1.438;2024-01-10T12:19:27;3.80;99.90
11656;DHT22;5884;43.618;1.438;2024-01-10T12:21:54;3.90;99.90
11656;DHT22;5884;43.618;1.438;2024-01-10T12:24:21;3.90;99.90
11656;DHT22;5884;43.618;1.438;2024-01-10T12:26:49;3.90;99.90
11656;DHT22;5884;43.618;1.438;2024-01-10T12:29:17;3.90;99.90
11656;DHT22;5884;43.618;1.438;2024-01-10T12:31:46;3.90;99.90
11656;DHT22;5884;43.618;1.438;2024-01-10T12:34:15;3.90;99.90
11656;DHT22;5884;43.618;1.438;2024-01-10T12:36:42;4.00;99.90
11656;DHT22;5884;43.618;1.438;2024-01-10T12:39:10;4.10;99.90
11656;DHT22;5884;43.618;1.438;2024-01-10T12:41:38;4.10;99.90
11656;DHT22;5884;43.618;1.438;2024-01-10T12:44:07;4.20;99.90
11656;DHT22;5884;43.618;1.438;2024-01-10T12:46:34;4.30;99.90
11656;DHT22;5884;43.618;1.438;2024-01-10T12:49:03;4.40;99.90
11656;DHT22;5884;43.618;1.438;2024-01-10T12:51:34;4.40;99.90
11656;DHT22;5884;43.618;1.438;2024-01-10T12:54:03;4.40;99.90
11656;DHT22;5884;43.618;1.438;2024-01-10T12:56:30;4.50;99.90
11656;DHT22;5884;43.618;1.438;2024-01-10T12:58:58;4.60;99.90
11656;DHT22;5884;43.618;1.438;2024-01-10T13:01:25;4.60;99.90
11656;DHT22;5884;43.618;1.438;2024-01-10T13:03:53;4.70;99.90
11656;DHT22;5884;43.618;1.438;2024-01-10T13:06:21;4.80;99.90
11656;DHT22;5884;43.618;1.438;2024-01-10T13:08:51;4.80;99.90
11656;DHT22;5884;43.618;1.438;2024-01-10T13:11:19;4.80;99.90
11656;DHT22;5884;43.618;1.438;2024-01-10T13:13:46;4.80;99.90
11656;DHT22;5884;43.618;1.438;2024-01-10T13:16:13;4.70;99.90
11656;DHT22;5884;43.618;1.438;2024-01-10T13:18:40;4.80;99.90
11656;DHT22;5884;43.618;1.438;2024-01-10T13:21:07;4.80;99.90
11656;DHT22;5884;43.618;1.438;2024-01-10T13:23:36;4.80;99.90
11656;DHT22;5884;43.618;1.438;2024-01-10T13:26:04;4.90;99.90
11656;DHT22;5884;43.618;1.438;2024-01-10T13:28:32;4.90;99.90
11656;DHT22;5884;43.618;1.438;2024-01-10T13:31:00;4.90;99.90
11656;DHT22;5884;43.618;1.438;2024-01-10T13:33:28;4.90;99.90
11656;DHT22;5884;43.618;1.438;2024-01-10T13:35:55;5.00;99.90
11656;DHT22;5884;43.618;1.438;2024-01-10T13:38:23;5.00;99.90
11656;DHT22;5884;43.618;1.438;2024-01-10T13:40:51;5.00;99.90
11656;DHT22;5884;43.618;1.438;2024-01-10T13:43:20;5.00;99.90
11656;DHT22;5884;43.618;1.438;2024-01-10T13:45:47;4.90;99.90
11656;DHT22;5884;43.618;1.438;2024-01-10T13:48:15;4.90;99.90
11656;DHT22;5884;43.618;1.438;2024-01-10T13:50:42;4.90;99.90
11656;DHT22;5884;43.618;1.438;2024-01-10T13:53:11;4.80;99.90
11656;DHT22;5884;43.618;1.438;2024-01-10T13:55:39;4.90;99.90
11656;DHT22;5884;43.618;1.438;2024-01-10T13:58:06;4.90;99.90
11656;DHT22;5884;43.618;1.438;2024-01-10T14:00:35;5.00;99.90
11656;DHT22;5884;43.618;1.438;2024-01-10T14:03:03;5.00;99.90
11656;DHT22;5884;43.618;1.438;2024-01-10T14:05:31;5.00;99.90
11656;DHT22;5884;43.618;1.438;2024-01-10T14:07:58;5.10;99.90
11656;DHT22;5884;43.618;1.438;2024-01-10T14:10:25;5.10;99.90
11656;DHT22;5884;43.618;1.438;2024-01-10T14:12:52;5.20;99.90
11656;DHT22;5884;43.618;1.438;2024-01-10T14:15:19;5.20;99.90
11656;DHT22;5884;43.618;1.438;2024-01-10T14:17:48;5.30;99.90
11656;DHT22;5884;43.618;1.438;2024-01-10T14:20:17;5.30;99.90
11656;DHT22;5884;43.618;1.438;2024-01-10T14:22:44;5.40;99.90
11656;DHT22;5884;43.618;1.438;2024-01-10T14:25:11;5.40;99.90
11656;DHT22;5884;43.618;1.438;2024-01-10T14:27:39;5.40;99.90
11656;DHT22;5884;43.618;1.438;2024-01-10T14:30:07;5.40;99.90
11656;DHT22;5884;43.618;1.438;2024-01-10T14:32:35;5.50;99.90
11656;DHT22;5884;43.618;1.438;2024-01-10T14:35:04;5.50;99.90
11656;DHT22;5884;43.618;1.438;2024-01-10T14:37:32;5.50;99.90
11656;DHT22;5884;43.618;1.438;2024-01-10T14:40:02;5.50;99.90
11656;DHT22;5884;43.618;1.438;2024-01-10T14:42:32;5.40;99.90
11656;DHT22;5884;43.618;1.438;2024-01-10T14:44:59;5.60;99.90
11656;DHT22;5884;43.618;1.438;2024-01-10T14:47:27;5.50;99.90
11656;DHT22;5884;43.618;1.438;2024-01-10T14:49:55;5.50;99.90
11656;DHT22;5884;43.618;1.438;2024-01-10T14:52:24;5.50;99.90
11656;DHT22;5884;43.618;1.438;2024-01-10T14:54:51;5.40;99.90
11656;DHT22;5884;43.618;1.438;2024-01-10T14:57:19;5.30;99.90
11656;DHT22;5884;43.618;1.438;2024-01-10T14:59:47;5.30;99.90
11656;DHT22;5884;43.618;1.438;2024-01-10T15:02:15;5.30;99.90
11656;DHT22;5884;43.618;1.438;2024-01-10T15:04:44;5.20;99.90
11656;DHT22;5884;43.618;1.438;2024-01-10T15:07:11;5.20;99.90
11656;DHT22;5884;43.618;1.438;2024-01-10T15:09:42;5.20;99.90
11656;DHT22;5884;43.618;1.438;2024-01-10T15:12:09;5.20;99.90
11656;DHT22;5884;43.618;1.438;2024-01-10T15:14:37;5.20;99.90
11656;DHT22;5884;43.618;1.438;2024-01-10T15:17:04;5.20;99.90
11656;DHT22;5884;43.618;1.438;2024-01-10T15:19:33;5.10;99.90
11656;DHT22;5884;43.618;1.438;2024-01-10T15:22:01;5.10;99.90
11656;DHT22;5884;43.618;1.438;2024-01-10T15:24:28;5.10;99.90
11656;DHT22;5884;43.618;1.438;2024-01-10T15:26:57;5.10;99.90
11656;DHT22;5884;43.618;1.438;2024-01-10T15:29:27;5.10;99.90
11656;DHT22;5884;43.618;1.438;2024-01-10T15:31:55;5.10;99.90
11656;DHT22;5884;43.618;1.438;2024-01-10T15:34:22;5.10;99.90
11656;DHT22;5884;43.618;1.438;2024-01-10T15:36:51;5.10;99.90
11656;DHT22;5884;43.618;1.438;2024-01-10T15:39:18;5.10;99.90
11656;DHT22;5884;43.618;1.438;2024-01-10T15:41:46;5.10;99.90
11656;DHT22;5884;43.618;1.438;2024-01-10T15:44:15;5.10;99.90
11656;DHT22;5884;43.618;1.438;2024-01-10T15:46:44;5.10;99.90
11656;DHT22;5884;43.618;1.438;2024-01-10T15:49:12;5.20;99.90
11656;DHT22;5884;43.618;1.438;2024-01-10T15:51:39;5.20;99.90
11656;DHT22;5884;43.618;1.438;2024-01-10T15:54:06;5.20;99.90
11656;DHT22;5884;43.618;1.438;2024-01-10T15:56:33;5.20;99.90
11656;DHT22;5884;43.618;1.438;2024-01-10T15:59:04;5.20;99.90
11656;DHT22;5884;43.618;1.438;2024-01-10T16:01:33;5.20;99.90
11656;DHT22;5884;43.618;1.438;2024-01-10T16:04:00;5.20;99.90
11656;DHT22;5884;43.618;1.438;2024-01-10T16:06:28;5.20;99.90
11656;DHT22;5884;43.618;1.438;2024-01-10T16:08:55;5.20;99.90
11656;DHT22;5884;43.618;1.438;2024-01-10T16:11:22;5.10;99.90
11656;DHT22;5884;43.618;1.438;2024-01-10T16:13:50;5.10;99.90
11656;DHT22;5884;43.618;1.438;2024-01-10T16:16:21;5.00;99.90
11656;DHT22;5884;43.618;1.438;2024-01-10T16:18:50;5.00;99.90
11656;DHT22;5884;43.618;1.438;2024-01-10T16:21:20;4.90;99.90
11656;DHT22;5884;43.618;1.438;2024-01-10T16:23:47;4.90;99.90
11656;DHT22;5884;43.618;1.438;2024-01-10T16:26:15;4.80;99.90
11656;DHT22;5884;43.618;1.438;2024-01-10T16:28:42;4.80;99.90
11656;DHT22;5884;43.618;1.438;2024-01-10T16:31:09;4.80;99.90
11656;DHT22;5884;43.618;1.438;2024-01-10T16:33:36;4.70;99.90
11656;DHT22;5884;43.618;1.438;2024-01-10T16:36:05;4.70;99.90
11656;DHT22;5884;43.618;1.438;2024-01-10T16:38:33;4.60;99.90
11656;DHT22;5884;43.618;1.438;2024-01-10T16:41:00;4.60;99.90
11656;DHT22;5884;43.618;1.438;2024-01-10T16:43:27;4.60;99.90
11656;DHT22;5884;43.618;1.438;2024-01-10T16:45:55;4.50;99.90
11656;DHT22;5884;43.618;1.438;2024-01-10T16:48:23;4.50;99.90
11656;DHT22;5884;43.618;1.438;2024-01-10T16:50:51;4.50;99.90
11656;DHT22;5884;43.618;1.438;2024-01-10T16:53:21;4.60;99.90
11656;DHT22;5884;43.618;1.438;2024-01-10T16:55:49;4.60;99.90
11656;DHT22;5884;43.618;1.438;2024-01-10T16:58:17;4.60;99.90
11656;DHT22;5884;43.618;1.438;2024-01-10T17:00:44;4.60;99.90
11656;DHT22;5884;43.618;1.438;2024-01-10T17:03:13;4.60;99.90
11656;DHT22;5884;43.618;1.438;2024-01-10T17:05:40;4.60;99.90
11656;DHT22;5884;43.618;1.438;2024-01-10T17:08:08;4.60;99.90
11656;DHT22;5884;43.618;1.438;2024-01-10T17:10:37;4.50;99.90
11656;DHT22;5884;43.618;1.438;2024-01-10T17:13:04;4.50;99.90
11656;DHT22;5884;43.618;1.438;2024-01-10T17:15:31;4.50;99.90
11656;DHT22;5884;43.618;1.438;2024-01-10T17:17:59;4.50;99.90
11656;DHT22;5884;43.618;1.438;2024-01-10T17:20:26;4.50;99.90
11656;DHT22;5884;43.618;1.438;2024-01-10T17:22:53;4.60;99.90
11656;DHT22;5884;43.618;1.438;2024-01-10T17:25:20;4.50;99.90
11656;DHT22;5884;43.618;1.438;2024-01-10T17:27:50;4.60;99.90
11656;DHT22;5884;43.618;1.438;2024-01-10T17:30:17;4.50;99.90
11656;DHT22;5884;43.618;1.438;2024-01-10T17:32:45;4.50;99.90
11656;DHT22;5884;43.618;1.438;2024-01-10T17:35:12;4.40;99.90
11656;DHT22;5884;43.618;1.438;2024-01-10T17:37:40;4.40;99.90
11656;DHT22;5884;43.618;1.438;2024-01-10T17:40:08;4.40;99.90
11656;DHT22;5884;43.618;1.438;2024-01-10T17:42:36;4.50;99.90
11656;DHT22;5884;43.618;1.438;2024-01-10T17:45:06;4.50;99.90
11656;DHT22;5884;43.618;1.438;2024-01-10T17:47:34;4.40;99.90
11656;DHT22;5884;43.618;1.438;2024-01-10T17:50:04;4.40;99.90
11656;DHT22;5884;43.618;1.438;2024-01-10T17:52:32;4.40;99.90
11656;DHT22;5884;43.618;1.438;2024-01-10T17:55:00;4.40;99.90
11656;DHT22;5884;43.618;1.438;2024-01-10T17:57:27;4.30;99.90
11656;DHT22;5884;43.618;1.438;2024-01-10T17:59:55;4.30;99.90
11656;DHT22;5884;43.618;1.438;2024-01-10T18:02:24;4.40;99.90
11656;DHT22;5884;43.618;1.438;2024-01-10T18:04:51;4.30;99.90
11656;DHT22;5884;43.618;1.438;2024-01-10T18:07:18;4.40;99.90
11656;DHT22;5884;43.618;1.438;2024-01-10T18:09:45;4.30;99.90
11656;DHT22;5884;43.618;1.438;2024-01-10T18:12:12;4.40;99.90
11656;DHT22;5884;43.618;1.438;2024-01-10T18:14:39;4.30;99.90
11656;DHT22;5884;43.618;1.438;2024-01-10T18:17:07;4.30;99.90
11656;DHT22;5884;43.618;1.438;2024-01-10T18:19:36;4.30;99.90
11656;DHT22;5884;43.618;1.438;2024-01-10T18:22:03;4.30;99.90
11656;DHT22;5884;43.618;1.438;2024-01-10T18:24:30;4.30;99.90
11656;DHT22;5884;43.618;1.438;2024-01-10T18:26:57;4.30;99.90
11656;DHT22;5884;43.618;1.438;2024-01-10T18:29:24;4.30;99.90
11656;DHT22;5884;43.618;1.438;2024-01-10T18:31:51;4.30;99.90
11656;DHT22;5884;43.618;1.438;2024-01-10T18:34:19;4.30;99.90
11656;DHT22;5884;43.618;1.438;2024-01-10T18:36:47;4.30;99.90
11656;DHT22;5884;43.618;1.438;2024-01-10T18:39:14;4.30;99.90
11656;DHT22;5884;43.618;1.438;2024-01-10T18:41:43;4.20;99.90
11656;DHT22;5884;43.618;1.438;2024-01-10T18:44:10;4.30;99.90
11656;DHT22;5884;43.618;1.438;2024-01-10T18:46:39;4.30;99.90
11656;DHT22;5884;43.618;1.438;2024-01-10T18:49:06;4.30;99.90
11656;DHT22;5884;43.618;1.438;2024-01-10T18:51:34;4.30;99.90
11656;DHT22;5884;43.618;1.438;2024-01-10T18:54:03;4.30;99.90
11656;DHT22;5884;43.618;1.438;2024-01-10T18:56:30;4.30;99.90
11656;DHT22;5884;43.618;1.438;2024-01-10T18:58:58;4.20;99.90
11656;DHT22;5884;43.618;1.438;2024-01-10T19:01:25;4.30;99.90
11656;DHT22;5884;43.618;1.438;2024-01-10T19:03:52;4.30;99.90
11656;DHT22;5884;43.618;1.438;2024-01-10T19:06:19;4.30;99.90
11656;DHT22;5884;43.618;1.438;2024-01-10T19:08:46;4.30;99.90
11656;DHT22;5884;43.618;1.438;2024-01-10T19:11:14;4.30;99.90
11656;DHT22;5884;43.618;1.438;2024-01-10T19:13:42;4.30;99.90
11656;DHT22;5884;43.618;1.438;2024-01-10T19:16:09;4.30;99.90
11656;DHT22;5884;43.618;1.438;2024-01-10T19:18:36;4.30;99.90
11656;DHT22;5884;43.618;1.438;2024-01-10T19:21:04;4.30;99.90
11656;DHT22;5884;43.618;1.438;2024-01-10T19:23:32;4.40;99.90
11656;DHT22;5884;43.618;1.438;2024-01-10T19:25:59;4.40;99.90
11656;DHT22;5884;43.618;1.438;2024-01-10T19:28:28;4.40;99.90
11656;DHT22;5884;43.618;1.438;2024-01-10T19:33:24;4.30;99.90
11656;DHT22;5884;43.618;1.438;2024-01-10T19:35:51;4.40;99.90
11656;DHT22;5884;43.618;1.438;2024-01-10T19:38:18;4.40;99.90
11656;DHT22;5884;43.618;1.438;2024-01-10T19:40:45;4.40;99.90
11656;DHT22;5884;43.618;1.438;2024-01-10T19:43:21;4.30;99.90
11656;DHT22;5884;43.618;1.438;2024-01-10T19:45:50;4.20;99.90
11656;DHT22;5884;43.618;1.438;2024-01-10T19:48:18;4.30;99.90
11656;DHT22;5884;43.618;1.438;2024-01-10T19:50:45;4.20;99.90
11656;DHT22;5884;43.618;1.438;2024-01-10T19:53:12;4.20;99.90
11656;DHT22;5884;43.618;1.438;2024-01-10T19:55:40;4.20;99.90
11656;DHT22;5884;43.618;1.438;2024-01-10T19:58:07;4.20;99.90
11656;DHT22;5884;43.618;1.438;2024-01-10T20:00:34;4.20;99.90
11656;DHT22;5884;43.618;1.438;2024-01-10T20:03:03;4.20;99.90
11656;DHT22;5884;43.618;1.438;2024-01-10T20:05:31;4.20;99.90
11656;DHT22;5884;43.618;1.438;2024-01-10T20:07:58;4.20;99.90
11656;DHT22;5884;43.618;1.438;2024-01-10T20:10:25;4.20;99.90
11656;DHT22;5884;43.618;1.438;2024-01-10T20:12:52;4.20;99.90
11656;DHT22;5884;43.618;1.438;2024-01-10T20:15:19;4.10;99.90
11656;DHT22;5884;43.618;1.438;2024-01-10T20:17:46;4.20;99.90
11656;DHT22;5884;43.618;1.438;2024-01-10T20:20:15;4.10;99.90
11656;DHT22;5884;43.618;1.438;2024-01-10T20:22:42;4.10;99.90
11656;DHT22;5884;43.618;1.438;2024-01-10T20:25:09;4.10;99.90
11656;DHT22;5884;43.618;1.438;2024-01-10T20:27:36;4.10;99.90
11656;DHT22;5884;43.618;1.438;2024-01-10T20:30:05;4.10;99.90
11656;DHT22;5884;43.618;1.438;2024-01-10T20:32:32;4.00;99.90
11656;DHT22;5884;43.618;1.438;2024-01-10T20:35:00;4.00;99.90
11656;DHT22;5884;43.618;1.438;2024-01-10T20:37:28;4.00;99.90
11656;DHT22;5884;43.618;1.438;2024-01-10T20:39:55;4.00;99.90
11656;DHT22;5884;43.618;1.438;2024-01-10T20:42:23;4.00;99.90
11656;DHT22;5884;43.618;1.438;2024-01-10T20:44:54;4.00;99.90
11656;DHT22;5884;43.618;1.438;2024-01-10T20:47:21;4.00;99.90
11656;DHT22;5884;43.618;1.438;2024-01-10T20:49:52;4.00;99.90
11656;DHT22;5884;43.618;1.438;2024-01-10T20:52:19;4.00;99.90
11656;DHT22;5884;43.618;1.438;2024-01-10T20:54:49;4.00;99.90
11656;DHT22;5884;43.618;1.438;2024-01-10T20:57:16;4.00;99.90
11656;DHT22;5884;43.618;1.438;2024-01-10T20:59:44;4.00;99.90
11656;DHT22;5884;43.618;1.438;2024-01-10T21:02:11;4.00;99.90
11656;DHT22;5884;43.618;1.438;2024-01-10T21:04:38;3.90;99.90
11656;DHT22;5884;43.618;1.438;2024-01-10T21:07:05;3.90;99.90
11656;DHT22;5884;43.618;1.438;2024-01-10T21:09:36;3.90;99.90
11656;DHT22;5884;43.618;1.438;2024-01-10T21:12:06;3.90;99.90
11656;DHT22;5884;43.618;1.438;2024-01-10T21:14:35;3.90;99.90
11656;DHT22;5884;43.618;1.438;2024-01-10T21:17:04;3.90;99.90
11656;DHT22;5884;43.618;1.438;2024-01-10T21:19:31;3.80;99.90
11656;DHT22;5884;43.618;1.438;2024-01-10T21:21:58;3.80;99.90
11656;DHT22;5884;43.618;1.438;2024-01-10T21:24:26;3.70;99.90
11656;DHT22;5884;43.618;1.438;2024-01-10T21:26:53;3.80;99.90
11656;DHT22;5884;43.618;1.438;2024-01-10T21:29:21;3.80;99.90
11656;DHT22;5884;43.618;1.438;2024-01-10T21:31:49;3.80;99.90
11656;DHT22;5884;43.618;1.438;2024-01-10T21:34:16;3.90;99.90
11656;DHT22;5884;43.618;1.438;2024-01-10T21:36:43;3.80;99.90
11656;DHT22;5884;43.618;1.438;2024-01-10T21:39:10;3.80;99.90
11656;DHT22;5884;43.618;1.438;2024-01-10T21:41:37;3.90;99.90
11656;DHT22;5884;43.618;1.438;2024-01-10T21:44:04;3.80;99.90
11656;DHT22;5884;43.618;1.438;2024-01-10T21:46:33;3.80;99.90
11656;DHT22;5884;43.618;1.438;2024-01-10T21:49:00;3.80;99.90
11656;DHT22;5884;43.618;1.438;2024-01-10T21:51:27;3.80;99.90
11656;DHT22;5884;43.618;1.438;2024-01-10T21:53:54;3.80;99.90
11656;DHT22;5884;43.618;1.438;2024-01-10T21:56:22;3.80;99.90